logo
Search for airport 
image banner adimage banner adimage banner ad
image banner ad

EPMW - Maspex-Wadowice

Located in , Poland

ICAO - , IATA -

Data provided by Airmate  

General information

Coordinates: N49°53'10" E19°30'29"
Elevation is 835 feet MSL.
 
View others Airports in Silesia

Operational data

Special qualification required
Current time UTC:
Current local time:
Weather at : EPKK - Krakow/Balice ( 29 km )
METAR: EPKK 141730Z 14005KT CAVOK 25/19 Q1014
TAF: TAF EPKK 141730Z 1418/1518 10004KT CAVOK BECMG 1422/1501 4000 BR BKN004 PROB40 TEMPO 1501/1505 0600 FG OVC001 BECMG 1506/1509 9999 BKN025
View NOTAMs / SUP AIP / TFR affecting this airport [VIEW]
Communications frequencies: [VIEW]

Runways:

Airport contact information

Address: Poland

Satellite view of EPMW